sensor_id;sensor_type;location;lat;lon;timestamp;P1;durP1;ratioP1;P2;durP2;ratioP2
23782;SDS011;12071;50.850;4.446;2023-02-15T00:00:04;70.03;;;34.72;;
23782;SDS011;12071;50.850;4.446;2023-02-15T00:02:33;65.53;;;34.53;;
23782;SDS011;12071;50.850;4.446;2023-02-15T00:04:58;67.82;;;34.92;;
23782;SDS011;12071;50.850;4.446;2023-02-15T00:07:24;68.25;;;33.92;;
23782;SDS011;12071;50.850;4.446;2023-02-15T00:09:49;62.05;;;32.95;;
23782;SDS011;12071;50.850;4.446;2023-02-15T00:12:15;71.45;;;34.28;;
23782;SDS011;12071;50.850;4.446;2023-02-15T00:14:41;63.88;;;33.47;;
23782;SDS011;12071;50.850;4.446;2023-02-15T00:17:07;71.18;;;33.08;;
23782;SDS011;12071;50.850;4.446;2023-02-15T00:19:32;67.05;;;35.40;;
23782;SDS011;12071;50.850;4.446;2023-02-15T00:21:58;73.38;;;36.35;;
23782;SDS011;12071;50.850;4.446;2023-02-15T00:24:24;69.75;;;36.63;;
23782;SDS011;12071;50.850;4.446;2023-02-15T00:26:50;72.72;;;36.40;;
23782;SDS011;12071;50.850;4.446;2023-02-15T00:29:16;70.25;;;36.92;;
23782;SDS011;12071;50.850;4.446;2023-02-15T00:31:43;70.05;;;36.60;;
23782;SDS011;12071;50.850;4.446;2023-02-15T00:36:38;72.22;;;37.28;;
23782;SDS011;12071;50.850;4.446;2023-02-15T00:39:04;73.15;;;35.05;;
23782;SDS011;12071;50.850;4.446;2023-02-15T00:41:31;75.28;;;37.25;;
23782;SDS011;12071;50.850;4.446;2023-02-15T00:43:56;71.03;;;35.70;;
23782;SDS011;12071;50.850;4.446;2023-02-15T00:46:22;77.53;;;36.67;;
23782;SDS011;12071;50.850;4.446;2023-02-15T00:48:48;68.95;;;35.30;;
23782;SDS011;12071;50.850;4.446;2023-02-15T00:51:14;72.75;;;37.80;;
23782;SDS011;12071;50.850;4.446;2023-02-15T00:53:39;67.35;;;34.70;;
23782;SDS011;12071;50.850;4.446;2023-02-15T00:56:05;69.07;;;37.50;;
23782;SDS011;12071;50.850;4.446;2023-02-15T00:58:31;73.85;;;37.22;;
23782;SDS011;12071;50.850;4.446;2023-02-15T01:01:01;73.25;;;37.85;;
23782;SDS011;12071;50.850;4.446;2023-02-15T01:03:31;71.70;;;36.38;;
23782;SDS011;12071;50.850;4.446;2023-02-15T01:05:57;76.43;;;38.00;;
23782;SDS011;12071;50.850;4.446;2023-02-15T01:08:23;72.70;;;38.15;;
23782;SDS011;12071;50.850;4.446;2023-02-15T01:10:49;79.22;;;39.97;;
23782;SDS011;12071;50.850;4.446;2023-02-15T01:13:15;81.05;;;39.50;;
23782;SDS011;12071;50.850;4.446;2023-02-15T01:15:42;74.03;;;38.63;;
23782;SDS011;12071;50.850;4.446;2023-02-15T01:18:08;77.55;;;38.40;;
23782;SDS011;12071;50.850;4.446;2023-02-15T01:20:38;71.88;;;37.20;;
23782;SDS011;12071;50.850;4.446;2023-02-15T01:23:06;75.97;;;37.97;;
23782;SDS011;12071;50.850;4.446;2023-02-15T01:25:33;69.03;;;36.55;;
23782;SDS011;12071;50.850;4.446;2023-02-15T01:28:00;77.35;;;37.08;;
23782;SDS011;12071;50.850;4.446;2023-02-15T01:30:26;71.55;;;36.88;;
23782;SDS011;12071;50.850;4.446;2023-02-15T01:32:52;77.20;;;37.13;;
23782;SDS011;12071;50.850;4.446;2023-02-15T01:35:18;71.53;;;37.47;;
23782;SDS011;12071;50.850;4.446;2023-02-15T01:37:43;70.88;;;36.85;;
23782;SDS011;12071;50.850;4.446;2023-02-15T01:40:13;75.35;;;37.35;;
23782;SDS011;12071;50.850;4.446;2023-02-15T01:42:41;77.78;;;37.75;;
23782;SDS011;12071;50.850;4.446;2023-02-15T01:45:18;72.22;;;37.22;;
23782;SDS011;12071;50.850;4.446;2023-02-15T01:47:44;69.72;;;36.92;;
23782;SDS011;12071;50.850;4.446;2023-02-15T01:50:16;68.72;;;36.13;;
23782;SDS011;12071;50.850;4.446;2023-02-15T01:52:44;71.60;;;35.90;;
23782;SDS011;12071;50.850;4.446;2023-02-15T01:55:29;73.05;;;39.75;;
23782;SDS011;12071;50.850;4.446;2023-02-15T01:58:01;78.43;;;40.75;;
23782;SDS011;12071;50.850;4.446;2023-02-15T02:00:27;71.43;;;39.38;;
23782;SDS011;12071;50.850;4.446;2023-02-15T02:02:54;82.25;;;41.67;;
23782;SDS011;12071;50.850;4.446;2023-02-15T02:05:22;72.45;;;38.67;;
23782;SDS011;12071;50.850;4.446;2023-02-15T02:07:48;69.30;;;37.10;;
23782;SDS011;12071;50.850;4.446;2023-02-15T02:10:18;79.43;;;40.20;;
23782;SDS011;12071;50.850;4.446;2023-02-15T02:12:48;72.20;;;37.72;;
23782;SDS011;12071;50.850;4.446;2023-02-15T02:15:17;73.22;;;38.25;;
23782;SDS011;12071;50.850;4.446;2023-02-15T02:17:52;76.70;;;38.55;;
23782;SDS011;12071;50.850;4.446;2023-02-15T02:23:10;76.03;;;37.67;;
23782;SDS011;12071;50.850;4.446;2023-02-15T02:34:33;74.15;;;37.38;;
23782;SDS011;12071;50.850;4.446;2023-02-15T02:42:25;74.30;;;40.38;;
23782;SDS011;12071;50.850;4.446;2023-02-15T02:45:02;73.15;;;38.65;;
23782;SDS011;12071;50.850;4.446;2023-02-15T02:50:17;80.72;;;40.45;;
23782;SDS011;12071;50.850;4.446;2023-02-15T02:52:47;73.30;;;38.80;;
23782;SDS011;12071;50.850;4.446;2023-02-15T02:58:05;79.03;;;41.95;;
23782;SDS011;12071;50.850;4.446;2023-02-15T03:00:44;78.18;;;39.45;;
23782;SDS011;12071;50.850;4.446;2023-02-15T03:03:14;76.05;;;39.45;;
23782;SDS011;12071;50.850;4.446;2023-02-15T03:05:48;77.82;;;39.85;;
23782;SDS011;12071;50.850;4.446;2023-02-15T03:08:18;76.60;;;40.57;;
23782;SDS011;12071;50.850;4.446;2023-02-15T03:10:48;76.88;;;38.70;;
23782;SDS011;12071;50.850;4.446;2023-02-15T03:13:18;76.57;;;39.50;;
23782;SDS011;12071;50.850;4.446;2023-02-15T03:15:43;81.40;;;41.47;;
23782;SDS011;12071;50.850;4.446;2023-02-15T03:18:30;80.72;;;40.95;;
23782;SDS011;12071;50.850;4.446;2023-02-15T03:21:00;80.90;;;40.67;;
23782;SDS011;12071;50.850;4.446;2023-02-15T03:23:28;80.13;;;42.95;;
23782;SDS011;12071;50.850;4.446;2023-02-15T03:25:57;84.47;;;42.15;;
23782;SDS011;12071;50.850;4.446;2023-02-15T03:28:28;83.40;;;41.35;;
23782;SDS011;12071;50.850;4.446;2023-02-15T03:31:02;83.45;;;41.92;;
23782;SDS011;12071;50.850;4.446;2023-02-15T03:33:31;79.93;;;41.17;;
23782;SDS011;12071;50.850;4.446;2023-02-15T03:36:02;91.50;;;42.35;;
23782;SDS011;12071;50.850;4.446;2023-02-15T03:38:46;83.82;;;43.53;;
23782;SDS011;12071;50.850;4.446;2023-02-15T03:41:34;84.80;;;43.83;;
23782;SDS011;12071;50.850;4.446;2023-02-15T03:44:09;89.30;;;44.17;;
23782;SDS011;12071;50.850;4.446;2023-02-15T03:49:39;77.55;;;41.30;;
23782;SDS011;12071;50.850;4.446;2023-02-15T03:52:21;84.50;;;43.15;;
23782;SDS011;12071;50.850;4.446;2023-02-15T03:54:50;88.78;;;42.80;;
23782;SDS011;12071;50.850;4.446;2023-02-15T03:57:23;87.43;;;43.38;;
23782;SDS011;12071;50.850;4.446;2023-02-15T04:00:20;80.47;;;41.85;;
23782;SDS011;12071;50.850;4.446;2023-02-15T04:06:08;84.55;;;43.88;;
23782;SDS011;12071;50.850;4.446;2023-02-15T04:08:34;86.75;;;43.42;;
23782;SDS011;12071;50.850;4.446;2023-02-15T04:11:18;79.40;;;41.13;;
23782;SDS011;12071;50.850;4.446;2023-02-15T04:13:43;83.10;;;41.03;;
23782;SDS011;12071;50.850;4.446;2023-02-15T04:16:09;81.60;;;41.97;;
23782;SDS011;12071;50.850;4.446;2023-02-15T04:18:40;82.00;;;40.75;;
23782;SDS011;12071;50.850;4.446;2023-02-15T04:21:26;81.97;;;42.13;;
23782;SDS011;12071;50.850;4.446;2023-02-15T04:24:12;84.50;;;42.72;;
23782;SDS011;12071;50.850;4.446;2023-02-15T04:26:57;84.90;;;42.95;;
23782;SDS011;12071;50.850;4.446;2023-02-15T04:29:24;85.38;;;42.03;;
23782;SDS011;12071;50.850;4.446;2023-02-15T04:31:51;83.82;;;42.25;;
23782;SDS011;12071;50.850;4.446;2023-02-15T04:34:18;92.47;;;43.42;;
23782;SDS011;12071;50.850;4.446;2023-02-15T04:36:44;86.97;;;43.33;;
23782;SDS011;12071;50.850;4.446;2023-02-15T04:39:12;90.30;;;43.58;;
23782;SDS011;12071;50.850;4.446;2023-02-15T04:41:38;84.97;;;41.95;;
23782;SDS011;12071;50.850;4.446;2023-02-15T04:44:04;80.25;;;40.40;;
23782;SDS011;12071;50.850;4.446;2023-02-15T04:46:29;88.28;;;42.90;;
23782;SDS011;12071;50.850;4.446;2023-02-15T04:48:55;89.18;;;42.53;;
23782;SDS011;12071;50.850;4.446;2023-02-15T04:51:21;85.28;;;42.08;;
23782;SDS011;12071;50.850;4.446;2023-02-15T04:53:47;81.78;;;40.90;;
23782;SDS011;12071;50.850;4.446;2023-02-15T04:56:12;83.82;;;41.70;;
23782;SDS011;12071;50.850;4.446;2023-02-15T04:58:38;85.25;;;43.40;;
23782;SDS011;12071;50.850;4.446;2023-02-15T05:01:06;79.95;;;40.20;;
23782;SDS011;12071;50.850;4.446;2023-02-15T05:03:33;79.45;;;42.20;;
23782;SDS011;12071;50.850;4.446;2023-02-15T05:05:58;79.40;;;42.38;;
23782;SDS011;12071;50.850;4.446;2023-02-15T05:08:24;91.25;;;44.42;;
23782;SDS011;12071;50.850;4.446;2023-02-15T05:10:50;83.13;;;42.95;;
23782;SDS011;12071;50.850;4.446;2023-02-15T05:13:15;91.22;;;43.55;;
23782;SDS011;12071;50.850;4.446;2023-02-15T05:15:41;89.68;;;44.42;;
23782;SDS011;12071;50.850;4.446;2023-02-15T05:18:12;94.70;;;43.47;;
23782;SDS011;12071;50.850;4.446;2023-02-15T05:20:38;89.97;;;45.00;;
23782;SDS011;12071;50.850;4.446;2023-02-15T05:23:03;89.10;;;44.70;;
23782;SDS011;12071;50.850;4.446;2023-02-15T05:25:29;94.10;;;46.72;;
23782;SDS011;12071;50.850;4.446;2023-02-15T05:28:13;104.10;;;48.58;;
23782;SDS011;12071;50.850;4.446;2023-02-15T05:30:48;99.78;;;47.45;;
23782;SDS011;12071;50.850;4.446;2023-02-15T05:33:15;101.63;;;48.75;;
23782;SDS011;12071;50.850;4.446;2023-02-15T05:35:40;92.93;;;49.30;;
23782;SDS011;12071;50.850;4.446;2023-02-15T05:38:06;106.35;;;53.55;;
23782;SDS011;12071;50.850;4.446;2023-02-15T05:40:32;102.63;;;51.15;;
23782;SDS011;12071;50.850;4.446;2023-02-15T05:42:57;103.72;;;51.47;;
23782;SDS011;12071;50.850;4.446;2023-02-15T05:45:23;101.18;;;51.05;;
23782;SDS011;12071;50.850;4.446;2023-02-15T05:47:49;100.00;;;49.75;;
23782;SDS011;12071;50.850;4.446;2023-02-15T05:50:15;98.20;;;49.75;;
23782;SDS011;12071;50.850;4.446;2023-02-15T05:52:41;90.97;;;47.50;;
23782;SDS011;12071;50.850;4.446;2023-02-15T05:55:06;94.95;;;47.15;;
23782;SDS011;12071;50.850;4.446;2023-02-15T05:57:34;91.80;;;47.05;;
23782;SDS011;12071;50.850;4.446;2023-02-15T06:00:00;93.43;;;46.70;;
23782;SDS011;12071;50.850;4.446;2023-02-15T06:02:29;92.18;;;46.95;;
23782;SDS011;12071;50.850;4.446;2023-02-15T06:04:55;91.00;;;46.50;;
23782;SDS011;12071;50.850;4.446;2023-02-15T06:07:20;91.28;;;45.45;;
23782;SDS011;12071;50.850;4.446;2023-02-15T06:09:46;91.25;;;45.45;;
23782;SDS011;12071;50.850;4.446;2023-02-15T06:12:11;85.97;;;43.97;;
23782;SDS011;12071;50.850;4.446;2023-02-15T06:14:37;96.47;;;47.10;;
23782;SDS011;12071;50.850;4.446;2023-02-15T06:17:02;90.10;;;46.63;;
23782;SDS011;12071;50.850;4.446;2023-02-15T06:19:28;91.68;;;45.10;;
23782;SDS011;12071;50.850;4.446;2023-02-15T06:21:54;93.05;;;44.50;;
23782;SDS011;12071;50.850;4.446;2023-02-15T06:24:19;91.85;;;43.95;;
23782;SDS011;12071;50.850;4.446;2023-02-15T06:26:45;91.13;;;43.03;;
23782;SDS011;12071;50.850;4.446;2023-02-15T06:29:11;89.78;;;44.10;;
23782;SDS011;12071;50.850;4.446;2023-02-15T06:31:36;86.18;;;43.30;;
23782;SDS011;12071;50.850;4.446;2023-02-15T06:34:02;89.40;;;44.70;;
23782;SDS011;12071;50.850;4.446;2023-02-15T06:36:28;92.18;;;44.05;;
23782;SDS011;12071;50.850;4.446;2023-02-15T06:38:54;95.90;;;44.92;;
23782;SDS011;12071;50.850;4.446;2023-02-15T06:41:20;91.03;;;43.67;;
23782;SDS011;12071;50.850;4.446;2023-02-15T06:43:46;90.78;;;45.08;;
23782;SDS011;12071;50.850;4.446;2023-02-15T06:46:12;96.80;;;47.83;;
23782;SDS011;12071;50.850;4.446;2023-02-15T06:48:37;97.85;;;47.85;;
23782;SDS011;12071;50.850;4.446;2023-02-15T06:51:03;99.22;;;47.88;;
23782;SDS011;12071;50.850;4.446;2023-02-15T06:53:29;99.60;;;47.70;;
23782;SDS011;12071;50.850;4.446;2023-02-15T06:56:05;92.50;;;47.33;;
23782;SDS011;12071;50.850;4.446;2023-02-15T06:58:33;93.80;;;48.42;;
23782;SDS011;12071;50.850;4.446;2023-02-15T07:01:00;96.93;;;47.22;;
23782;SDS011;12071;50.850;4.446;2023-02-15T07:03:25;91.93;;;46.60;;
23782;SDS011;12071;50.850;4.446;2023-02-15T07:05:58;99.07;;;48.67;;
23782;SDS011;12071;50.850;4.446;2023-02-15T07:08:24;101.57;;;48.13;;
23782;SDS011;12071;50.850;4.446;2023-02-15T07:10:52;104.72;;;48.90;;
23782;SDS011;12071;50.850;4.446;2023-02-15T07:13:19;103.55;;;48.58;;
23782;SDS011;12071;50.850;4.446;2023-02-15T07:15:47;97.88;;;47.60;;
23782;SDS011;12071;50.850;4.446;2023-02-15T07:18:13;99.30;;;49.60;;
23782;SDS011;12071;50.850;4.446;2023-02-15T07:20:40;97.40;;;47.80;;
23782;SDS011;12071;50.850;4.446;2023-02-15T07:23:06;95.90;;;48.03;;
23782;SDS011;12071;50.850;4.446;2023-02-15T07:25:33;102.80;;;47.58;;
23782;SDS011;12071;50.850;4.446;2023-02-15T07:28:00;99.90;;;49.95;;
23782;SDS011;12071;50.850;4.446;2023-02-15T07:30:27;104.78;;;50.15;;
23782;SDS011;12071;50.850;4.446;2023-02-15T07:32:55;98.53;;;51.10;;
23782;SDS011;12071;50.850;4.446;2023-02-15T07:35:45;101.72;;;50.47;;
23782;SDS011;12071;50.850;4.446;2023-02-15T07:38:12;97.78;;;51.15;;
23782;SDS011;12071;50.850;4.446;2023-02-15T07:40:38;104.47;;;50.53;;
23782;SDS011;12071;50.850;4.446;2023-02-15T07:43:04;96.63;;;48.83;;
23782;SDS011;12071;50.850;4.446;2023-02-15T07:45:29;98.78;;;49.10;;
23782;SDS011;12071;50.850;4.446;2023-02-15T07:47:55;102.63;;;51.65;;
23782;SDS011;12071;50.850;4.446;2023-02-15T07:50:20;97.43;;;49.00;;
23782;SDS011;12071;50.850;4.446;2023-02-15T07:52:46;102.10;;;51.55;;
23782;SDS011;12071;50.850;4.446;2023-02-15T07:55:12;98.88;;;48.75;;
23782;SDS011;12071;50.850;4.446;2023-02-15T07:57:41;101.50;;;50.25;;
23782;SDS011;12071;50.850;4.446;2023-02-15T08:00:08;102.93;;;50.70;;
23782;SDS011;12071;50.850;4.446;2023-02-15T08:02:34;99.68;;;49.40;;
23782;SDS011;12071;50.850;4.446;2023-02-15T08:05:01;99.32;;;51.53;;
23782;SDS011;12071;50.850;4.446;2023-02-15T08:07:27;102.72;;;51.28;;
23782;SDS011;12071;50.850;4.446;2023-02-15T08:09:53;101.80;;;52.50;;
23782;SDS011;12071;50.850;4.446;2023-02-15T08:12:19;91.40;;;48.92;;
23782;SDS011;12071;50.850;4.446;2023-02-15T08:14:44;88.35;;;48.05;;
23782;SDS011;12071;50.850;4.446;2023-02-15T08:17:10;93.95;;;46.67;;
23782;SDS011;12071;50.850;4.446;2023-02-15T08:19:36;93.13;;;47.20;;
23782;SDS011;12071;50.850;4.446;2023-02-15T08:22:03;89.88;;;45.65;;
23782;SDS011;12071;50.850;4.446;2023-02-15T08:24:33;86.60;;;46.10;;
23782;SDS011;12071;50.850;4.446;2023-02-15T08:27:01;88.13;;;43.72;;
23782;SDS011;12071;50.850;4.446;2023-02-15T08:29:30;86.22;;;43.72;;
23782;SDS011;12071;50.850;4.446;2023-02-15T08:31:57;75.57;;;42.00;;
23782;SDS011;12071;50.850;4.446;2023-02-15T08:34:27;80.13;;;41.30;;
23782;SDS011;12071;50.850;4.446;2023-02-15T08:36:54;75.20;;;40.28;;
23782;SDS011;12071;50.850;4.446;2023-02-15T08:39:21;71.15;;;38.60;;
23782;SDS011;12071;50.850;4.446;2023-02-15T08:41:47;71.07;;;37.72;;
23782;SDS011;12071;50.850;4.446;2023-02-15T08:44:14;68.30;;;37.88;;
23782;SDS011;12071;50.850;4.446;2023-02-15T08:46:41;71.45;;;37.65;;
23782;SDS011;12071;50.850;4.446;2023-02-15T08:49:09;62.88;;;36.33;;
23782;SDS011;12071;50.850;4.446;2023-02-15T08:51:37;66.22;;;35.15;;
23782;SDS011;12071;50.850;4.446;2023-02-15T08:54:07;59.03;;;34.30;;
23782;SDS011;12071;50.850;4.446;2023-02-15T08:56:36;61.40;;;33.88;;
23782;SDS011;12071;50.850;4.446;2023-02-15T08:59:03;55.80;;;31.23;;
23782;SDS011;12071;50.850;4.446;2023-02-15T09:01:30;54.33;;;30.00;;
23782;SDS011;12071;50.850;4.446;2023-02-15T09:03:58;55.05;;;29.10;;
23782;SDS011;12071;50.850;4.446;2023-02-15T09:06:26;52.88;;;27.90;;
23782;SDS011;12071;50.850;4.446;2023-02-15T09:08:52;54.25;;;28.10;;
23782;SDS011;12071;50.850;4.446;2023-02-15T09:11:20;48.80;;;26.88;;
23782;SDS011;12071;50.850;4.446;2023-02-15T09:13:58;44.25;;;24.50;;
23782;SDS011;12071;50.850;4.446;2023-02-15T09:16:25;44.45;;;24.45;;
23782;SDS011;12071;50.850;4.446;2023-02-15T09:18:53;43.28;;;23.52;;
23782;SDS011;12071;50.850;4.446;2023-02-15T09:21:20;45.80;;;24.10;;
23782;SDS011;12071;50.850;4.446;2023-02-15T09:23:48;43.25;;;24.35;;
23782;SDS011;12071;50.850;4.446;2023-02-15T09:26:16;42.15;;;24.02;;
23782;SDS011;12071;50.850;4.446;2023-02-15T09:28:43;42.22;;;22.60;;
23782;SDS011;12071;50.850;4.446;2023-02-15T09:31:16;42.42;;;23.40;;
23782;SDS011;12071;50.850;4.446;2023-02-15T09:33:44;40.92;;;22.15;;
23782;SDS011;12071;50.850;4.446;2023-02-15T09:38:44;38.53;;;22.02;;
23782;SDS011;12071;50.850;4.446;2023-02-15T09:41:22;38.47;;;22.10;;
23782;SDS011;12071;50.850;4.446;2023-02-15T09:46:33;38.85;;;22.25;;
23782;SDS011;12071;50.850;4.446;2023-02-15T09:58:01;36.50;;;20.77;;
23782;SDS011;12071;50.850;4.446;2023-02-15T10:14:25;36.17;;;19.77;;
23782;SDS011;12071;50.850;4.446;2023-02-15T10:19:53;42.10;;;20.48;;
23782;SDS011;12071;50.850;4.446;2023-02-15T10:25:16;34.70;;;20.65;;
23782;SDS011;12071;50.850;4.446;2023-02-15T10:27:47;39.17;;;19.02;;
23782;SDS011;12071;50.850;4.446;2023-02-15T10:30:14;36.25;;;19.48;;
23782;SDS011;12071;50.850;4.446;2023-02-15T10:48:39;34.97;;;20.58;;
23782;SDS011;12071;50.850;4.446;2023-02-15T11:07:57;39.85;;;20.23;;
23782;SDS011;12071;50.850;4.446;2023-02-15T11:13:04;39.83;;;19.55;;
23782;SDS011;12071;50.850;4.446;2023-02-15T11:15:45;39.50;;;20.48;;
23782;SDS011;12071;50.850;4.446;2023-02-15T11:18:19;38.35;;;20.42;;
23782;SDS011;12071;50.850;4.446;2023-02-15T11:23:29;39.88;;;20.33;;
23782;SDS011;12071;50.850;4.446;2023-02-15T11:25:58;41.58;;;20.48;;
23782;SDS011;12071;50.850;4.446;2023-02-15T11:31:21;43.45;;;21.73;;
23782;SDS011;12071;50.850;4.446;2023-02-15T11:33:50;40.17;;;20.77;;
23782;SDS011;12071;50.850;4.446;2023-02-15T11:36:33;39.00;;;21.02;;
23782;SDS011;12071;50.850;4.446;2023-02-15T11:39:05;41.30;;;22.38;;
23782;SDS011;12071;50.850;4.446;2023-02-15T11:41:37;41.22;;;21.23;;
23782;SDS011;12071;50.850;4.446;2023-02-15T11:44:06;42.90;;;22.17;;
23782;SDS011;12071;50.850;4.446;2023-02-15T11:46:43;40.40;;;20.90;;
23782;SDS011;12071;50.850;4.446;2023-02-15T11:49:28;42.35;;;21.63;;
23782;SDS011;12071;50.850;4.446;2023-02-15T11:52:02;41.88;;;21.10;;
23782;SDS011;12071;50.850;4.446;2023-02-15T11:54:33;40.42;;;21.50;;
23782;SDS011;12071;50.850;4.446;2023-02-15T11:57:44;40.00;;;21.85;;
23782;SDS011;12071;50.850;4.446;2023-02-15T12:02:39;39.55;;;21.90;;
23782;SDS011;12071;50.850;4.446;2023-02-15T12:05:21;40.67;;;22.90;;
23782;SDS011;12071;50.850;4.446;2023-02-15T12:07:54;40.60;;;21.58;;
23782;SDS011;12071;50.850;4.446;2023-02-15T12:10:26;43.20;;;23.58;;
23782;SDS011;12071;50.850;4.446;2023-02-15T12:15:45;43.85;;;21.73;;
23782;SDS011;12071;50.850;4.446;2023-02-15T12:18:21;42.13;;;23.33;;
23782;SDS011;12071;50.850;4.446;2023-02-15T12:20:58;39.92;;;23.02;;
23782;SDS011;12071;50.850;4.446;2023-02-15T12:23:24;43.83;;;23.40;;
23782;SDS011;12071;50.850;4.446;2023-02-15T12:25:54;42.13;;;22.55;;
23782;SDS011;12071;50.850;4.446;2023-02-15T12:28:34;40.70;;;23.13;;
23782;SDS011;12071;50.850;4.446;2023-02-15T12:31:26;39.38;;;22.50;;
23782;SDS011;12071;50.850;4.446;2023-02-15T12:33:59;41.85;;;23.50;;
23782;SDS011;12071;50.850;4.446;2023-02-15T12:36:31;38.78;;;22.58;;
23782;SDS011;12071;50.850;4.446;2023-02-15T12:41:37;41.50;;;23.45;;
23782;SDS011;12071;50.850;4.446;2023-02-15T12:44:17;42.60;;;23.45;;
23782;SDS011;12071;50.850;4.446;2023-02-15T12:51:57;47.70;;;23.77;;
23782;SDS011;12071;50.850;4.446;2023-02-15T12:57:13;46.75;;;23.33;;
23782;SDS011;12071;50.850;4.446;2023-02-15T13:07:39;43.03;;;24.73;;
23782;SDS011;12071;50.850;4.446;2023-02-15T13:10:57;42.90;;;23.52;;
23782;SDS011;12071;50.850;4.446;2023-02-15T13:13:00;41.65;;;23.60;;
23782;SDS011;12071;50.850;4.446;2023-02-15T13:15:32;38.95;;;22.85;;
23782;SDS011;12071;50.850;4.446;2023-02-15T13:18:01;44.80;;;24.23;;
23782;SDS011;12071;50.850;4.446;2023-02-15T13:20:29;43.78;;;24.23;;
23782;SDS011;12071;50.850;4.446;2023-02-15T13:22:58;45.33;;;23.48;;
23782;SDS011;12071;50.850;4.446;2023-02-15T13:25:28;44.65;;;23.92;;
23782;SDS011;12071;50.850;4.446;2023-02-15T13:28:03;41.28;;;24.13;;
23782;SDS011;12071;50.850;4.446;2023-02-15T13:30:31;42.08;;;24.05;;
23782;SDS011;12071;50.850;4.446;2023-02-15T13:33:04;41.65;;;23.63;;
23782;SDS011;12071;50.850;4.446;2023-02-15T13:35:42;42.95;;;25.05;;
23782;SDS011;12071;50.850;4.446;2023-02-15T13:38:25;42.67;;;23.77;;
23782;SDS011;12071;50.850;4.446;2023-02-15T13:41:16;40.67;;;23.10;;
23782;SDS011;12071;50.850;4.446;2023-02-15T13:43:56;41.78;;;24.80;;
23782;SDS011;12071;50.850;4.446;2023-02-15T13:46:37;42.30;;;24.05;;
23782;SDS011;12071;50.850;4.446;2023-02-15T13:54:28;43.67;;;24.63;;
23782;SDS011;12071;50.850;4.446;2023-02-15T14:02:46;44.80;;;25.58;;
23782;SDS011;12071;50.850;4.446;2023-02-15T14:17:09;43.53;;;26.30;;
23782;SDS011;12071;50.850;4.446;2023-02-15T14:19:44;44.80;;;26.27;;
23782;SDS011;12071;50.850;4.446;2023-02-15T14:30:37;43.95;;;24.60;;
23782;SDS011;12071;50.850;4.446;2023-02-15T14:35:40;48.13;;;26.75;;
23782;SDS011;12071;50.850;4.446;2023-02-15T14:46:50;50.28;;;28.90;;
23782;SDS011;12071;50.850;4.446;2023-02-15T14:49:32;51.15;;;29.63;;
23782;SDS011;12071;50.850;4.446;2023-02-15T14:52:02;54.33;;;30.60;;
23782;SDS011;12071;50.850;4.446;2023-02-15T14:59:40;57.00;;;30.20;;
23782;SDS011;12071;50.850;4.446;2023-02-15T15:02:13;52.25;;;30.35;;
23782;SDS011;12071;50.850;4.446;2023-02-15T15:07:41;49.90;;;28.75;;
23782;SDS011;12071;50.850;4.446;2023-02-15T15:15:10;48.40;;;27.88;;
23782;SDS011;12071;50.850;4.446;2023-02-15T15:25:43;52.30;;;29.83;;
23782;SDS011;12071;50.850;4.446;2023-02-15T15:28:30;52.92;;;31.70;;
23782;SDS011;12071;50.850;4.446;2023-02-15T15:49:58;52.70;;;32.67;;
23782;SDS011;12071;50.850;4.446;2023-02-15T15:52:26;54.05;;;32.05;;
23782;SDS011;12071;50.850;4.446;2023-02-15T15:54:57;55.53;;;33.00;;
23782;SDS011;12071;50.850;4.446;2023-02-15T15:57:35;56.42;;;33.42;;
23782;SDS011;12071;50.850;4.446;2023-02-15T16:00:04;57.40;;;32.90;;
23782;SDS011;12071;50.850;4.446;2023-02-15T16:02:53;69.03;;;33.95;;
23782;SDS011;12071;50.850;4.446;2023-02-15T16:05:20;55.78;;;32.40;;
23782;SDS011;12071;50.850;4.446;2023-02-15T16:07:46;61.30;;;33.15;;
23782;SDS011;12071;50.850;4.446;2023-02-15T16:10:24;59.25;;;31.95;;
23782;SDS011;12071;50.850;4.446;2023-02-15T16:12:51;57.70;;;32.38;;
23782;SDS011;12071;50.850;4.446;2023-02-15T16:15:18;52.67;;;31.27;;
23782;SDS011;12071;50.850;4.446;2023-02-15T16:17:45;58.65;;;32.83;;
23782;SDS011;12071;50.850;4.446;2023-02-15T16:22:46;59.65;;;33.53;;
23782;SDS011;12071;50.850;4.446;2023-02-15T16:27:43;53.97;;;31.63;;
23782;SDS011;12071;50.850;4.446;2023-02-15T16:30:31;55.28;;;32.58;;
23782;SDS011;12071;50.850;4.446;2023-02-15T16:35:37;59.17;;;30.58;;
23782;SDS011;12071;50.850;4.446;2023-02-15T16:38:19;56.70;;;32.90;;
23782;SDS011;12071;50.850;4.446;2023-02-15T16:41:04;53.85;;;30.25;;
23782;SDS011;12071;50.850;4.446;2023-02-15T16:43:30;62.28;;;31.98;;
23782;SDS011;12071;50.850;4.446;2023-02-15T16:46:08;54.85;;;31.73;;
23782;SDS011;12071;50.850;4.446;2023-02-15T16:48:39;55.80;;;30.75;;
23782;SDS011;12071;50.850;4.446;2023-02-15T16:51:07;61.17;;;33.70;;
23782;SDS011;12071;50.850;4.446;2023-02-15T16:53:34;57.55;;;32.47;;
23782;SDS011;12071;50.850;4.446;2023-02-15T16:56:02;58.45;;;32.90;;
23782;SDS011;12071;50.850;4.446;2023-02-15T16:58:49;55.63;;;32.03;;
23782;SDS011;12071;50.850;4.446;2023-02-15T17:01:16;60.25;;;33.03;;
23782;SDS011;12071;50.850;4.446;2023-02-15T17:03:48;58.00;;;32.13;;
23782;SDS011;12071;50.850;4.446;2023-02-15T17:06:22;61.08;;;32.92;;
23782;SDS011;12071;50.850;4.446;2023-02-15T17:09:02;61.53;;;34.65;;
23782;SDS011;12071;50.850;4.446;2023-02-15T17:11:42;60.70;;;34.05;;
23782;SDS011;12071;50.850;4.446;2023-02-15T17:16:44;59.78;;;32.83;;
23782;SDS011;12071;50.850;4.446;2023-02-15T17:19:15;57.63;;;32.05;;
23782;SDS011;12071;50.850;4.446;2023-02-15T17:21:42;59.30;;;32.67;;
23782;SDS011;12071;50.850;4.446;2023-02-15T17:24:17;58.63;;;34.38;;
23782;SDS011;12071;50.850;4.446;2023-02-15T17:26:53;64.70;;;34.40;;
23782;SDS011;12071;50.850;4.446;2023-02-15T17:37:26;63.70;;;34.30;;
23782;SDS011;12071;50.850;4.446;2023-02-15T17:39:54;61.13;;;35.05;;
23782;SDS011;12071;50.850;4.446;2023-02-15T17:42:21;55.65;;;32.88;;
23782;SDS011;12071;50.850;4.446;2023-02-15T17:44:47;59.13;;;34.20;;
23782;SDS011;12071;50.850;4.446;2023-02-15T17:47:18;60.67;;;35.03;;
23782;SDS011;12071;50.850;4.446;2023-02-15T17:49:47;66.32;;;35.08;;
23782;SDS011;12071;50.850;4.446;2023-02-15T17:52:14;58.38;;;33.88;;
23782;SDS011;12071;50.850;4.446;2023-02-15T17:54:41;60.42;;;35.20;;
23782;SDS011;12071;50.850;4.446;2023-02-15T17:57:26;59.35;;;34.03;;
23782;SDS011;12071;50.850;4.446;2023-02-15T17:59:53;60.40;;;34.72;;
23782;SDS011;12071;50.850;4.446;2023-02-15T18:02:37;62.25;;;35.35;;
23782;SDS011;12071;50.850;4.446;2023-02-15T18:05:22;64.03;;;34.65;;
23782;SDS011;12071;50.850;4.446;2023-02-15T18:08:10;59.10;;;34.70;;
23782;SDS011;12071;50.850;4.446;2023-02-15T18:10:59;65.28;;;36.00;;
23782;SDS011;12071;50.850;4.446;2023-02-15T18:13:43;66.35;;;35.60;;
23782;SDS011;12071;50.850;4.446;2023-02-15T18:16:11;63.45;;;35.15;;
23782;SDS011;12071;50.850;4.446;2023-02-15T18:18:47;65.78;;;35.30;;
23782;SDS011;12071;50.850;4.446;2023-02-15T18:21:13;62.80;;;34.72;;
23782;SDS011;12071;50.850;4.446;2023-02-15T18:23:40;60.65;;;34.70;;
23782;SDS011;12071;50.850;4.446;2023-02-15T18:26:08;61.47;;;35.40;;
23782;SDS011;12071;50.850;4.446;2023-02-15T18:28:41;58.22;;;35.08;;